createdAt,value
2023-01-15T00:02:35.770Z,12.63
2023-01-15T00:06:03.110Z,12.80
2023-01-15T00:09:25.096Z,12.65
2023-01-15T00:12:47.119Z,13.80
2023-01-15T00:16:13.770Z,14.05
2023-01-15T00:19:35.837Z,12.30
2023-01-15T00:22:57.747Z,13.18
2023-01-15T00:26:40.263Z,12.80
2023-01-15T00:30:02.257Z,12.10
2023-01-15T00:33:25.067Z,12.20
2023-01-15T00:36:47.147Z,10.60
2023-01-15T00:40:09.787Z,10.65
2023-01-15T00:43:33.658Z,10.57
2023-01-15T00:46:55.752Z,10.10
2023-01-15T00:50:17.793Z,9.80
2023-01-15T00:53:39.810Z,11.25
2023-01-15T00:57:02.131Z,10.18
2023-01-15T01:00:24.167Z,10.25
2023-01-15T01:03:52.641Z,9.90
2023-01-15T01:07:14.844Z,12.60
2023-01-15T01:10:37.224Z,11.02
2023-01-15T01:13:59.237Z,10.05
2023-01-15T01:17:21.364Z,11.75
2023-01-15T01:20:43.383Z,11.50
2023-01-15T01:24:06.823Z,13.70
2023-01-15T01:27:30.023Z,13.00
2023-01-15T01:30:51.981Z,13.02
2023-01-15T01:34:14.628Z,14.10
2023-01-15T01:37:37.201Z,15.55
2023-01-15T01:40:59.575Z,14.77
2023-01-15T01:44:34.913Z,14.65
2023-01-15T01:48:02.872Z,14.57
2023-01-15T01:51:28.927Z,15.05
2023-01-15T01:54:52.459Z,14.32
2023-01-15T01:58:16.599Z,13.70
2023-01-15T02:01:38.758Z,14.38
2023-01-15T02:05:01.890Z,15.27
2023-01-15T02:08:24.198Z,14.95
2023-01-15T02:11:46.274Z,12.98
2023-01-15T02:15:15.534Z,13.77
2023-01-15T02:19:03.543Z,15.00
2023-01-15T02:23:06.666Z,13.75
2023-01-15T02:26:55.263Z,13.88
2023-01-15T02:30:25.989Z,12.70
2023-01-15T02:33:55.744Z,12.85
2023-01-15T02:37:25.896Z,13.68
2023-01-15T02:40:50.925Z,12.63
2023-01-15T02:44:19.340Z,11.82
2023-01-15T02:47:44.491Z,11.88
2023-01-15T02:51:12.915Z,11.43
2023-01-15T02:54:45.386Z,12.98
2023-01-15T02:58:14.756Z,12.43
2023-01-15T03:01:50.232Z,12.13
2023-01-15T03:05:24.060Z,12.48
2023-01-15T03:08:46.904Z,13.02
2023-01-15T03:12:26.911Z,12.68
2023-01-15T03:16:17.872Z,12.50
2023-01-15T03:19:47.604Z,12.57
2023-01-15T03:23:16.686Z,12.88
2023-01-15T03:26:38.789Z,13.77
2023-01-15T03:30:08.906Z,12.05
2023-01-15T03:33:31.331Z,12.07
2023-01-15T03:36:54.097Z,12.05
2023-01-15T03:40:17.541Z,11.95
2023-01-15T03:44:15.551Z,11.63
2023-01-15T03:47:47.358Z,9.98
2023-01-15T03:51:40.516Z,11.23
2023-01-15T03:55:17.659Z,11.23
2023-01-15T03:58:55.416Z,10.25
2023-01-15T04:02:26.657Z,10.15
2023-01-15T04:05:50.987Z,9.82
2023-01-15T04:09:15.079Z,10.30
2023-01-15T04:12:38.996Z,9.63
2023-01-15T04:16:05.657Z,11.15
2023-01-15T04:19:27.668Z,9.13
2023-01-15T04:22:58.707Z,10.52
2023-01-15T04:26:21.142Z,10.05
2023-01-15T04:29:43.158Z,10.15
2023-01-15T04:33:05.710Z,11.85
2023-01-15T04:36:27.807Z,9.68
2023-01-15T04:39:49.832Z,10.02
2023-01-15T04:43:31.139Z,10.43
2023-01-15T04:46:54.021Z,10.50
2023-01-15T04:50:16.528Z,8.98
2023-01-15T04:53:38.443Z,9.02
2023-01-15T04:57:00.594Z,10.02
2023-01-15T05:00:23.293Z,9.13
2023-01-15T05:03:45.369Z,9.65
2023-01-15T05:07:07.394Z,10.55
2023-01-15T05:10:29.332Z,8.98
2023-01-15T05:13:51.323Z,9.88
2023-01-15T05:17:13.290Z,9.07
2023-01-15T05:20:38.188Z,9.25
2023-01-15T05:24:02.609Z,9.18
2023-01-15T05:27:24.571Z,9.20
2023-01-15T05:30:46.576Z,8.57
2023-01-15T05:34:09.736Z,8.00
2023-01-15T05:37:31.663Z,7.50
2023-01-15T05:40:53.758Z,7.80
2023-01-15T05:44:27.935Z,7.50
2023-01-15T05:47:49.929Z,8.05
2023-01-15T05:51:12.223Z,6.90
2023-01-15T05:54:36.116Z,7.88
2023-01-15T05:57:58.586Z,7.25
2023-01-15T06:01:21.347Z,8.52
2023-01-15T06:04:43.366Z,8.65
2023-01-15T06:08:05.588Z,7.30
2023-01-15T06:11:27.751Z,6.78
2023-01-15T06:14:49.832Z,6.30
2023-01-15T06:18:11.877Z,7.38
2023-01-15T06:21:34.968Z,7.45
2023-01-15T06:24:57.000Z,7.95
2023-01-15T06:28:19.058Z,6.38
2023-01-15T06:31:41.192Z,7.60
2023-01-15T06:35:03.636Z,7.07
2023-01-15T06:38:25.635Z,6.35
2023-01-15T06:42:06.415Z,7.10
2023-01-15T06:45:50.074Z,6.15
2023-01-15T06:49:12.079Z,7.03
2023-01-15T06:52:34.064Z,7.28
2023-01-15T06:55:56.032Z,5.75
2023-01-15T06:59:19.367Z,6.80
2023-01-15T07:02:41.509Z,7.07
2023-01-15T07:06:11.403Z,6.22
2023-01-15T07:09:33.436Z,6.18
2023-01-15T07:12:55.404Z,7.45
2023-01-15T07:16:29.570Z,5.70
2023-01-15T07:19:51.568Z,6.90
2023-01-15T07:23:14.977Z,6.65
2023-01-15T07:26:38.526Z,6.30
2023-01-15T07:30:00.508Z,7.15
2023-01-15T07:33:22.610Z,6.15
2023-01-15T07:36:44.718Z,6.40
2023-01-15T07:40:07.020Z,7.55
2023-01-15T07:43:47.611Z,6.93
2023-01-15T07:50:56.163Z,7.25
2023-01-15T07:54:18.130Z,8.43
2023-01-15T07:57:41.599Z,7.15
2023-01-15T08:01:03.674Z,7.00
2023-01-15T08:04:26.413Z,7.60
2023-01-15T08:07:50.037Z,8.07
2023-01-15T08:11:30.961Z,7.93
2023-01-15T08:15:11.671Z,7.35
2023-01-15T08:18:33.645Z,8.73
2023-01-15T08:21:57.008Z,7.95
2023-01-15T08:25:21.772Z,9.25
2023-01-15T08:28:43.772Z,10.13
2023-01-15T08:32:06.310Z,8.77
2023-01-15T08:35:28.310Z,11.30
2023-01-15T08:38:50.519Z,9.63
2023-01-15T08:42:12.495Z,9.70
2023-01-15T08:45:34.506Z,11.13
2023-01-15T08:48:56.530Z,10.88
2023-01-15T08:52:18.545Z,9.23
2023-01-15T08:55:40.983Z,10.77
2023-01-15T08:59:07.981Z,9.95
2023-01-15T09:02:30.089Z,10.55
2023-01-15T09:05:52.119Z,11.90
2023-01-15T09:09:14.808Z,11.77
2023-01-15T09:12:37.605Z,12.00
2023-01-15T09:16:00.704Z,14.30
2023-01-15T09:19:22.721Z,10.25
2023-01-15T09:22:44.727Z,8.25
2023-01-15T09:26:08.092Z,8.40
2023-01-15T09:29:30.059Z,7.82
2023-01-15T09:32:52.037Z,7.78
2023-01-15T09:36:19.258Z,8.18
2023-01-15T09:39:41.440Z,8.45
2023-01-15T09:43:30.906Z,10.23
2023-01-15T09:46:58.586Z,8.27
2023-01-15T09:50:49.794Z,10.07
2023-01-15T09:57:41.622Z,9.80
2023-01-15T10:01:04.387Z,9.40
2023-01-15T10:04:40.985Z,9.75
2023-01-15T10:08:50.624Z,9.93
2023-01-15T10:12:39.740Z,10.38
2023-01-15T10:16:02.377Z,10.32
2023-01-15T10:19:28.172Z,11.30
2023-01-15T10:22:58.817Z,11.27
2023-01-15T10:26:40.764Z,10.88
2023-01-15T10:30:15.756Z,12.15
2023-01-15T10:33:59.711Z,11.00
2023-01-15T10:37:41.774Z,11.00
2023-01-15T10:41:22.545Z,10.23
2023-01-15T10:44:59.709Z,11.50
2023-01-15T10:48:27.324Z,12.50
2023-01-15T10:52:05.058Z,11.90
2023-01-15T10:55:35.055Z,14.20
2023-01-15T10:59:05.596Z,15.50
2023-01-15T11:02:39.977Z,16.10
2023-01-15T11:06:02.371Z,15.13
2023-01-15T11:09:34.808Z,13.75
2023-01-15T11:13:31.214Z,13.75
2023-01-15T11:16:56.165Z,14.27
2023-01-15T11:20:24.156Z,14.23
2023-01-15T11:23:46.774Z,13.68
2023-01-15T11:27:15.880Z,14.25
2023-01-15T11:30:38.380Z,12.82
2023-01-15T11:34:02.707Z,12.68
2023-01-15T11:37:25.158Z,13.43
2023-01-15T11:40:55.036Z,14.25
2023-01-15T11:44:37.818Z,16.25
2023-01-15T11:48:35.343Z,14.88
2023-01-15T11:52:00.786Z,14.15
2023-01-15T11:55:26.753Z,12.65
2023-01-15T11:58:58.539Z,15.00
2023-01-15T12:02:48.911Z,15.35
2023-01-15T12:06:13.994Z,18.27
2023-01-15T12:10:05.748Z,16.10
2023-01-15T12:13:43.578Z,17.83
2023-01-15T12:17:11.569Z,15.48
2023-01-15T12:20:49.753Z,15.52
2023-01-15T12:24:27.623Z,14.82
2023-01-15T12:28:13.426Z,14.43
2023-01-15T12:31:49.258Z,15.65
2023-01-15T12:35:49.066Z,14.00
2023-01-15T12:39:36.799Z,12.02
2023-01-15T12:43:17.781Z,13.77
2023-01-15T12:46:44.417Z,13.88
2023-01-15T12:50:12.221Z,14.82
2023-01-15T12:53:43.990Z,17.30
2023-01-15T12:57:18.085Z,15.20
2023-01-15T13:00:43.366Z,14.40
2023-01-15T13:04:16.664Z,12.80
2023-01-15T13:07:56.223Z,12.43
2023-01-15T13:11:18.226Z,13.98
2023-01-15T13:14:40.540Z,13.15
2023-01-15T13:18:26.941Z,12.68
2023-01-15T13:21:53.020Z,12.85
2023-01-15T13:25:33.493Z,12.63
2023-01-15T13:29:04.211Z,12.23
2023-01-15T13:33:01.585Z,13.80
2023-01-15T13:36:32.463Z,14.77
2023-01-15T13:40:03.664Z,14.05
2023-01-15T13:43:36.042Z,14.27
2023-01-15T13:47:08.450Z,14.63
2023-01-15T13:50:33.214Z,14.82
2023-01-15T13:53:58.005Z,15.95
2023-01-15T13:57:41.172Z,15.75
2023-01-15T14:01:25.406Z,17.40
2023-01-15T14:04:47.443Z,17.42
2023-01-15T14:08:17.324Z,17.25
2023-01-15T14:12:06.974Z,16.33
2023-01-15T14:15:32.128Z,16.92
2023-01-15T14:19:19.667Z,14.70
2023-01-15T14:23:01.001Z,16.00
2023-01-15T14:26:54.672Z,16.65
2023-01-15T14:30:42.594Z,17.83
2023-01-15T14:34:33.054Z,16.83
2023-01-15T14:37:59.494Z,20.25
2023-01-15T14:41:57.290Z,22.63
2023-01-15T14:45:21.982Z,21.05
2023-01-15T14:48:44.019Z,20.83
2023-01-15T14:52:06.077Z,20.35
2023-01-15T14:55:29.063Z,20.70
2023-01-15T14:59:08.871Z,18.75
2023-01-15T15:02:38.933Z,16.80
2023-01-15T15:09:34.962Z,17.95
2023-01-15T15:13:20.384Z,18.13
2023-01-15T15:16:50.445Z,19.52
2023-01-15T15:24:14.303Z,19.23
2023-01-15T15:27:36.399Z,20.35
2023-01-15T15:31:01.679Z,17.83
2023-01-15T15:34:34.645Z,18.70
2023-01-15T15:38:05.810Z,17.98
2023-01-15T15:41:56.390Z,18.73
2023-01-15T15:45:40.380Z,18.35
2023-01-15T15:49:02.626Z,17.92
2023-01-15T15:52:25.933Z,16.65
2023-01-15T15:55:48.075Z,16.95
2023-01-15T15:59:37.118Z,21.02
2023-01-15T16:03:17.534Z,18.92
2023-01-15T16:06:39.566Z,22.38
2023-01-15T16:10:12.659Z,19.33
2023-01-15T16:13:38.278Z,19.63
2023-01-15T16:17:00.424Z,19.33
2023-01-15T16:20:22.741Z,20.67
2023-01-15T16:24:02.802Z,19.90
2023-01-15T16:27:33.155Z,20.08
2023-01-15T16:30:57.559Z,22.27
2023-01-15T16:34:22.831Z,19.85
2023-01-15T16:37:49.488Z,20.83
2023-01-15T16:41:35.398Z,20.23
2023-01-15T16:45:01.802Z,21.95
2023-01-15T16:48:45.725Z,19.75
2023-01-15T16:52:46.305Z,19.52
2023-01-15T16:56:47.043Z,18.45
2023-01-15T17:00:30.722Z,16.13
2023-01-15T17:03:53.522Z,16.48
2023-01-15T17:07:20.918Z,16.52
2023-01-15T17:10:58.848Z,17.67
2023-01-15T17:14:24.102Z,16.88
2023-01-15T17:17:48.763Z,16.10
2023-01-15T17:21:18.717Z,14.80
2023-01-15T17:24:52.229Z,13.50
2023-01-15T17:28:15.190Z,17.98
2023-01-15T17:31:37.358Z,17.00
2023-01-15T17:34:59.384Z,15.88
2023-01-15T17:38:21.436Z,16.55
2023-01-15T17:41:43.405Z,14.38
2023-01-15T17:45:05.833Z,14.93
2023-01-15T17:48:27.808Z,14.65
2023-01-15T17:51:50.159Z,16.15
2023-01-15T17:55:32.908Z,17.27
2023-01-15T17:59:13.542Z,17.38
2023-01-15T18:06:17.529Z,17.10
2023-01-15T18:09:39.623Z,20.23
2023-01-15T18:13:03.691Z,21.27
2023-01-15T18:16:26.460Z,25.08
2023-01-15T18:19:48.509Z,32.33
2023-01-15T18:23:10.832Z,24.38
2023-01-15T18:26:34.863Z,23.73
2023-01-15T18:29:57.908Z,19.08
2023-01-15T18:33:19.920Z,22.15
2023-01-15T18:36:42.160Z,20.83
2023-01-15T18:40:05.073Z,23.52
2023-01-15T18:43:45.643Z,25.10
2023-01-15T18:47:12.300Z,24.92
2023-01-15T18:50:34.291Z,22.90
2023-01-15T18:53:56.244Z,20.05
2023-01-15T18:57:18.256Z,18.38
2023-01-15T19:00:40.471Z,18.15
2023-01-15T19:04:06.315Z,19.90
2023-01-15T19:07:28.980Z,20.25
2023-01-15T19:10:51.871Z,17.98
2023-01-15T19:14:33.375Z,18.42
2023-01-15T19:18:14.023Z,16.45
2023-01-15T19:21:35.999Z,16.80
2023-01-15T19:24:57.992Z,14.95
2023-01-15T19:28:21.311Z,15.55
2023-01-15T19:31:43.396Z,15.32
2023-01-15T19:35:05.871Z,37.88
2023-01-15T19:38:27.913Z,28.95
2023-01-15T19:42:08.444Z,17.08
2023-01-15T19:45:49.931Z,19.08
2023-01-15T19:49:38.790Z,17.25
2023-01-15T19:53:01.207Z,16.27
2023-01-15T19:56:23.152Z,15.45
2023-01-15T19:59:48.012Z,18.17
2023-01-15T20:03:12.444Z,19.23
2023-01-15T20:06:34.452Z,19.55
2023-01-15T20:09:56.573Z,19.58
2023-01-15T20:13:39.985Z,18.45
2023-01-15T20:17:01.984Z,18.02
2023-01-15T20:20:25.131Z,18.50
2023-01-15T20:23:47.113Z,21.70
2023-01-15T20:27:10.082Z,21.13
2023-01-15T20:30:32.130Z,21.27
2023-01-15T20:33:55.688Z,19.02
2023-01-15T20:37:17.783Z,17.25
2023-01-15T20:40:40.000Z,22.70
2023-01-15T20:44:20.425Z,18.88
2023-01-15T20:48:02.203Z,18.60
2023-01-15T20:51:24.209Z,18.58
2023-01-15T20:54:46.183Z,15.43
2023-01-15T20:58:08.381Z,15.98
2023-01-15T21:01:30.576Z,16.85
2023-01-15T21:04:52.717Z,17.95
2023-01-15T21:08:14.862Z,17.83
2023-01-15T21:11:36.993Z,17.90
2023-01-15T21:14:59.028Z,16.70
2023-01-15T21:18:21.020Z,16.58
2023-01-15T21:21:43.034Z,16.10
2023-01-15T21:25:06.257Z,15.65
2023-01-15T21:28:29.151Z,18.02
2023-01-15T21:31:51.505Z,20.00
2023-01-15T21:35:13.551Z,18.23
2023-01-15T21:38:36.137Z,17.63
2023-01-15T21:42:16.665Z,15.13
2023-01-15T21:45:38.814Z,15.40
2023-01-15T21:49:00.854Z,15.13
2023-01-15T21:52:23.494Z,14.88
2023-01-15T21:55:52.527Z,13.95
2023-01-15T21:59:15.051Z,14.15
2023-01-15T22:02:37.227Z,13.75
2023-01-15T22:06:05.007Z,13.73
2023-01-15T22:09:27.323Z,12.50
2023-01-15T22:12:49.456Z,12.07
2023-01-15T22:16:11.445Z,11.18
2023-01-15T22:19:34.133Z,12.25
2023-01-15T22:22:56.185Z,11.48
2023-01-15T22:26:19.484Z,12.18
2023-01-15T22:29:42.803Z,12.55
2023-01-15T22:33:04.886Z,14.77
2023-01-15T22:36:27.436Z,13.25
2023-01-15T22:39:50.013Z,11.55
2023-01-15T22:43:11.958Z,10.55
2023-01-15T22:46:35.404Z,11.43
2023-01-15T22:49:57.480Z,11.05
2023-01-15T22:53:19.430Z,10.20
2023-01-15T22:56:41.580Z,9.98
2023-01-15T23:00:04.925Z,8.90
2023-01-15T23:03:26.893Z,9.70
2023-01-15T23:06:51.295Z,9.13
2023-01-15T23:10:13.827Z,8.82
2023-01-15T23:13:36.281Z,10.60
2023-01-15T23:16:58.238Z,10.18
2023-01-15T23:20:20.570Z,10.20
2023-01-15T23:23:42.792Z,8.73
2023-01-15T23:27:04.762Z,9.43
2023-01-15T23:30:26.756Z,9.55
2023-01-15T23:33:48.779Z,9.35
2023-01-15T23:37:10.734Z,9.27
2023-01-15T23:40:32.668Z,9.73
2023-01-15T23:44:13.433Z,7.82
2023-01-15T23:47:35.478Z,7.82
2023-01-15T23:50:57.396Z,7.43
2023-01-15T23:54:19.470Z,8.23
2023-01-15T23:57:41.440Z,8.23
